sensor_id;sensor_type;location;lat;lon;timestamp;P1;durP1;ratioP1;P2;durP2;ratioP2
20177;SDS011;10248;51.218;20.866;2022-10-17T00:01:56;3.53;;;3.42;;
20177;SDS011;10248;51.218;20.866;2022-10-17T00:04:25;3.20;;;3.10;;
20177;SDS011;10248;51.218;20.866;2022-10-17T00:06:53;3.40;;;3.30;;
20177;SDS011;10248;51.218;20.866;2022-10-17T00:09:20;3.38;;;3.28;;
20177;SDS011;10248;51.218;20.866;2022-10-17T00:11:48;3.40;;;3.30;;
20177;SDS011;10248;51.218;20.866;2022-10-17T00:14:16;3.20;;;3.10;;
20177;SDS011;10248;51.218;20.866;2022-10-17T00:16:43;3.20;;;3.10;;
20177;SDS011;10248;51.218;20.866;2022-10-17T00:19:11;3.30;;;3.20;;
20177;SDS011;10248;51.218;20.866;2022-10-17T00:21:40;3.20;;;3.10;;
20177;SDS011;10248;51.218;20.866;2022-10-17T00:24:07;3.47;;;3.38;;
20177;SDS011;10248;51.218;20.866;2022-10-17T00:26:35;3.30;;;3.20;;
20177;SDS011;10248;51.218;20.866;2022-10-17T00:29:03;3.40;;;3.30;;
20177;SDS011;10248;51.218;20.866;2022-10-17T00:31:31;3.50;;;3.40;;
20177;SDS011;10248;51.218;20.866;2022-10-17T00:33:58;3.50;;;3.40;;
20177;SDS011;10248;51.218;20.866;2022-10-17T00:36:26;3.50;;;3.40;;
20177;SDS011;10248;51.218;20.866;2022-10-17T00:38:56;3.05;;;2.95;;
20177;SDS011;10248;51.218;20.866;2022-10-17T00:41:25;3.40;;;3.30;;
20177;SDS011;10248;51.218;20.866;2022-10-17T00:43:55;3.13;;;3.03;;
20177;SDS011;10248;51.218;20.866;2022-10-17T00:46:24;3.20;;;3.10;;
20177;SDS011;10248;51.218;20.866;2022-10-17T00:48:53;3.40;;;3.30;;
20177;SDS011;10248;51.218;20.866;2022-10-17T00:51:24;3.10;;;3.00;;
20177;SDS011;10248;51.218;20.866;2022-10-17T00:53:56;3.38;;;3.28;;
20177;SDS011;10248;51.218;20.866;2022-10-17T00:56:24;3.40;;;3.30;;
20177;SDS011;10248;51.218;20.866;2022-10-17T00:58:52;3.58;;;3.47;;
20177;SDS011;10248;51.218;20.866;2022-10-17T01:01:20;3.40;;;3.30;;
20177;SDS011;10248;51.218;20.866;2022-10-17T01:03:48;3.50;;;3.40;;
20177;SDS011;10248;51.218;20.866;2022-10-17T01:06:15;3.55;;;3.45;;
20177;SDS011;10248;51.218;20.866;2022-10-17T01:08:43;3.38;;;3.28;;
20177;SDS011;10248;51.218;20.866;2022-10-17T01:11:18;3.40;;;3.30;;
20177;SDS011;10248;51.218;20.866;2022-10-17T01:13:48;3.30;;;3.20;;
20177;SDS011;10248;51.218;20.866;2022-10-17T01:16:18;3.47;;;3.38;;
20177;SDS011;10248;51.218;20.866;2022-10-17T01:18:55;3.30;;;3.20;;
20177;SDS011;10248;51.218;20.866;2022-10-17T01:21:32;3.47;;;3.38;;
20177;SDS011;10248;51.218;20.866;2022-10-17T01:24:11;3.70;;;3.60;;
20177;SDS011;10248;51.218;20.866;2022-10-17T01:26:47;3.50;;;3.40;;
20177;SDS011;10248;51.218;20.866;2022-10-17T01:29:35;3.60;;;3.50;;
20177;SDS011;10248;51.218;20.866;2022-10-17T01:32:07;3.30;;;3.20;;
20177;SDS011;10248;51.218;20.866;2022-10-17T01:34:38;3.60;;;3.50;;
20177;SDS011;10248;51.218;20.866;2022-10-17T01:37:11;3.50;;;3.40;;
20177;SDS011;10248;51.218;20.866;2022-10-17T01:39:41;3.60;;;3.50;;
20177;SDS011;10248;51.218;20.866;2022-10-17T01:44:41;3.45;;;3.35;;
20177;SDS011;10248;51.218;20.866;2022-10-17T01:47:14;2.97;;;2.88;;
20177;SDS011;10248;51.218;20.866;2022-10-17T01:49:44;3.10;;;3.00;;
20177;SDS011;10248;51.218;20.866;2022-10-17T01:52:12;3.20;;;3.10;;
20177;SDS011;10248;51.218;20.866;2022-10-17T01:54:42;3.30;;;3.20;;
20177;SDS011;10248;51.218;20.866;2022-10-17T01:57:13;3.20;;;3.10;;
20177;SDS011;10248;51.218;20.866;2022-10-17T01:59:43;3.10;;;3.00;;
20177;SDS011;10248;51.218;20.866;2022-10-17T02:02:14;3.20;;;3.10;;
20177;SDS011;10248;51.218;20.866;2022-10-17T02:04:43;3.30;;;3.20;;
20177;SDS011;10248;51.218;20.866;2022-10-17T02:07:12;3.20;;;3.10;;
20177;SDS011;10248;51.218;20.866;2022-10-17T02:09:39;3.13;;;3.03;;
20177;SDS011;10248;51.218;20.866;2022-10-17T02:12:10;3.20;;;3.10;;
20177;SDS011;10248;51.218;20.866;2022-10-17T02:14:42;3.30;;;3.20;;
20177;SDS011;10248;51.218;20.866;2022-10-17T02:17:17;2.92;;;2.83;;
20177;SDS011;10248;51.218;20.866;2022-10-17T02:19:49;3.10;;;3.00;;
20177;SDS011;10248;51.218;20.866;2022-10-17T02:22:21;3.13;;;3.03;;
20177;SDS011;10248;51.218;20.866;2022-10-17T02:24:53;3.40;;;3.30;;
20177;SDS011;10248;51.218;20.866;2022-10-17T02:30:43;3.10;;;3.00;;
20177;SDS011;10248;51.218;20.866;2022-10-17T02:33:15;3.10;;;3.00;;
20177;SDS011;10248;51.218;20.866;2022-10-17T02:35:46;3.25;;;3.15;;
20177;SDS011;10248;51.218;20.866;2022-10-17T02:38:15;3.28;;;3.17;;
20177;SDS011;10248;51.218;20.866;2022-10-17T02:40:42;3.20;;;3.10;;
20177;SDS011;10248;51.218;20.866;2022-10-17T02:43:11;3.10;;;3.00;;
20177;SDS011;10248;51.218;20.866;2022-10-17T02:45:39;3.05;;;2.95;;
20177;SDS011;10248;51.218;20.866;2022-10-17T02:48:08;3.00;;;2.90;;
20177;SDS011;10248;51.218;20.866;2022-10-17T02:50:40;3.10;;;3.00;;
20177;SDS011;10248;51.218;20.866;2022-10-17T02:53:11;3.10;;;3.00;;
20177;SDS011;10248;51.218;20.866;2022-10-17T02:55:42;3.10;;;3.00;;
20177;SDS011;10248;51.218;20.866;2022-10-17T02:58:13;3.20;;;3.10;;
20177;SDS011;10248;51.218;20.866;2022-10-17T03:00:42;3.08;;;2.97;;
20177;SDS011;10248;51.218;20.866;2022-10-17T03:03:17;3.17;;;3.08;;
20177;SDS011;10248;51.218;20.866;2022-10-17T03:05:46;3.10;;;3.00;;
20177;SDS011;10248;51.218;20.866;2022-10-17T03:08:14;3.20;;;3.10;;
20177;SDS011;10248;51.218;20.866;2022-10-17T03:10:42;3.22;;;3.13;;
20177;SDS011;10248;51.218;20.866;2022-10-17T03:13:09;3.40;;;3.30;;
20177;SDS011;10248;51.218;20.866;2022-10-17T03:15:37;3.33;;;3.22;;
20177;SDS011;10248;51.218;20.866;2022-10-17T03:18:04;3.30;;;3.20;;
20177;SDS011;10248;51.218;20.866;2022-10-17T03:20:32;3.10;;;3.00;;
20177;SDS011;10248;51.218;20.866;2022-10-17T03:23:01;3.17;;;3.08;;
20177;SDS011;10248;51.218;20.866;2022-10-17T03:25:29;3.30;;;3.20;;
20177;SDS011;10248;51.218;20.866;2022-10-17T03:27:57;3.00;;;2.90;;
20177;SDS011;10248;51.218;20.866;2022-10-17T03:30:24;2.97;;;2.88;;
20177;SDS011;10248;51.218;20.866;2022-10-17T03:32:52;3.13;;;3.03;;
20177;SDS011;10248;51.218;20.866;2022-10-17T03:35:20;3.20;;;3.10;;
20177;SDS011;10248;51.218;20.866;2022-10-17T03:37:48;3.10;;;3.00;;
20177;SDS011;10248;51.218;20.866;2022-10-17T03:40:17;3.17;;;3.08;;
20177;SDS011;10248;51.218;20.866;2022-10-17T03:42:44;3.30;;;3.20;;
20177;SDS011;10248;51.218;20.866;2022-10-17T03:45:12;3.20;;;3.10;;
20177;SDS011;10248;51.218;20.866;2022-10-17T03:47:40;3.40;;;3.30;;
20177;SDS011;10248;51.218;20.866;2022-10-17T03:50:08;3.00;;;2.90;;
20177;SDS011;10248;51.218;20.866;2022-10-17T03:52:35;3.30;;;3.20;;
20177;SDS011;10248;51.218;20.866;2022-10-17T03:55:03;3.30;;;3.20;;
20177;SDS011;10248;51.218;20.866;2022-10-17T03:57:34;3.20;;;3.10;;
20177;SDS011;10248;51.218;20.866;2022-10-17T04:00:04;3.40;;;3.30;;
20177;SDS011;10248;51.218;20.866;2022-10-17T04:02:32;3.25;;;3.15;;
20177;SDS011;10248;51.218;20.866;2022-10-17T04:05:00;3.17;;;3.08;;
20177;SDS011;10248;51.218;20.866;2022-10-17T04:07:28;3.30;;;3.20;;
20177;SDS011;10248;51.218;20.866;2022-10-17T04:09:56;3.17;;;3.08;;
20177;SDS011;10248;51.218;20.866;2022-10-17T04:12:23;3.38;;;3.28;;
20177;SDS011;10248;51.218;20.866;2022-10-17T04:14:53;3.30;;;3.20;;
20177;SDS011;10248;51.218;20.866;2022-10-17T04:17:20;3.60;;;3.50;;
20177;SDS011;10248;51.218;20.866;2022-10-17T04:19:48;3.50;;;3.40;;
20177;SDS011;10248;51.218;20.866;2022-10-17T04:22:15;3.20;;;3.10;;
20177;SDS011;10248;51.218;20.866;2022-10-17T04:24:43;3.13;;;3.03;;
20177;SDS011;10248;51.218;20.866;2022-10-17T04:27:11;3.17;;;3.08;;
20177;SDS011;10248;51.218;20.866;2022-10-17T04:29:38;3.30;;;3.20;;
20177;SDS011;10248;51.218;20.866;2022-10-17T04:32:07;3.28;;;3.17;;
20177;SDS011;10248;51.218;20.866;2022-10-17T04:34:35;3.30;;;3.20;;
20177;SDS011;10248;51.218;20.866;2022-10-17T04:37:03;2.97;;;2.88;;
20177;SDS011;10248;51.218;20.866;2022-10-17T04:39:30;3.20;;;3.10;;
20177;SDS011;10248;51.218;20.866;2022-10-17T04:41:58;3.20;;;3.10;;
20177;SDS011;10248;51.218;20.866;2022-10-17T04:44:26;3.20;;;3.10;;
20177;SDS011;10248;51.218;20.866;2022-10-17T04:46:56;3.30;;;3.20;;
20177;SDS011;10248;51.218;20.866;2022-10-17T04:49:25;3.30;;;3.20;;
20177;SDS011;10248;51.218;20.866;2022-10-17T04:51:52;3.13;;;3.03;;
20177;SDS011;10248;51.218;20.866;2022-10-17T04:54:20;3.33;;;3.22;;
20177;SDS011;10248;51.218;20.866;2022-10-17T04:56:48;3.17;;;3.08;;
20177;SDS011;10248;51.218;20.866;2022-10-17T04:59:15;3.30;;;3.20;;
20177;SDS011;10248;51.218;20.866;2022-10-17T05:01:50;3.50;;;3.40;;
20177;SDS011;10248;51.218;20.866;2022-10-17T05:04:18;3.40;;;3.30;;
20177;SDS011;10248;51.218;20.866;2022-10-17T05:06:51;3.33;;;3.22;;
20177;SDS011;10248;51.218;20.866;2022-10-17T05:09:19;3.40;;;3.30;;
20177;SDS011;10248;51.218;20.866;2022-10-17T05:11:46;3.17;;;3.08;;
20177;SDS011;10248;51.218;20.866;2022-10-17T05:14:14;3.20;;;3.10;;
20177;SDS011;10248;51.218;20.866;2022-10-17T05:16:42;3.38;;;3.28;;
20177;SDS011;10248;51.218;20.866;2022-10-17T05:19:10;3.30;;;3.20;;
20177;SDS011;10248;51.218;20.866;2022-10-17T05:21:37;3.00;;;2.90;;
20177;SDS011;10248;51.218;20.866;2022-10-17T05:24:08;3.40;;;3.30;;
20177;SDS011;10248;51.218;20.866;2022-10-17T05:26:36;3.50;;;3.40;;
20177;SDS011;10248;51.218;20.866;2022-10-17T05:29:04;2.92;;;2.83;;
20177;SDS011;10248;51.218;20.866;2022-10-17T05:31:34;3.30;;;3.20;;
20177;SDS011;10248;51.218;20.866;2022-10-17T05:34:03;3.40;;;3.30;;
20177;SDS011;10248;51.218;20.866;2022-10-17T05:36:35;3.20;;;3.10;;
20177;SDS011;10248;51.218;20.866;2022-10-17T05:39:03;3.40;;;3.30;;
20177;SDS011;10248;51.218;20.866;2022-10-17T05:41:32;3.20;;;3.10;;
20177;SDS011;10248;51.218;20.866;2022-10-17T05:44:00;3.03;;;2.92;;
20177;SDS011;10248;51.218;20.866;2022-10-17T05:46:30;3.30;;;3.20;;
20177;SDS011;10248;51.218;20.866;2022-10-17T05:48:58;3.20;;;3.10;;
20177;SDS011;10248;51.218;20.866;2022-10-17T05:51:26;3.22;;;3.13;;
20177;SDS011;10248;51.218;20.866;2022-10-17T05:53:54;3.05;;;2.95;;
20177;SDS011;10248;51.218;20.866;2022-10-17T05:56:21;3.17;;;3.08;;
20177;SDS011;10248;51.218;20.866;2022-10-17T05:58:51;3.30;;;3.20;;
20177;SDS011;10248;51.218;20.866;2022-10-17T06:01:25;3.22;;;3.13;;
20177;SDS011;10248;51.218;20.866;2022-10-17T06:03:52;3.33;;;3.22;;
20177;SDS011;10248;51.218;20.866;2022-10-17T06:06:21;3.33;;;3.22;;
20177;SDS011;10248;51.218;20.866;2022-10-17T06:08:48;3.17;;;3.08;;
20177;SDS011;10248;51.218;20.866;2022-10-17T06:11:16;3.45;;;3.35;;
20177;SDS011;10248;51.218;20.866;2022-10-17T06:13:44;3.30;;;3.20;;
20177;SDS011;10248;51.218;20.866;2022-10-17T06:16:13;3.33;;;3.22;;
20177;SDS011;10248;51.218;20.866;2022-10-17T06:18:41;3.15;;;3.05;;
20177;SDS011;10248;51.218;20.866;2022-10-17T06:21:10;3.40;;;3.30;;
20177;SDS011;10248;51.218;20.866;2022-10-17T06:23:38;3.05;;;2.95;;
20177;SDS011;10248;51.218;20.866;2022-10-17T06:26:06;3.33;;;3.22;;
20177;SDS011;10248;51.218;20.866;2022-10-17T06:28:33;3.60;;;3.50;;
20177;SDS011;10248;51.218;20.866;2022-10-17T06:31:03;3.25;;;3.15;;
20177;SDS011;10248;51.218;20.866;2022-10-17T06:33:32;3.35;;;3.25;;
20177;SDS011;10248;51.218;20.866;2022-10-17T06:35:59;3.40;;;3.30;;
20177;SDS011;10248;51.218;20.866;2022-10-17T06:38:27;3.20;;;3.10;;
20177;SDS011;10248;51.218;20.866;2022-10-17T06:41:01;3.15;;;3.05;;
20177;SDS011;10248;51.218;20.866;2022-10-17T06:43:28;3.60;;;3.50;;
20177;SDS011;10248;51.218;20.866;2022-10-17T06:45:56;3.50;;;3.40;;
20177;SDS011;10248;51.218;20.866;2022-10-17T06:48:23;3.47;;;3.38;;
20177;SDS011;10248;51.218;20.866;2022-10-17T06:50:53;3.42;;;3.33;;
20177;SDS011;10248;51.218;20.866;2022-10-17T06:53:20;3.50;;;3.40;;
20177;SDS011;10248;51.218;20.866;2022-10-17T06:55:50;3.50;;;3.40;;
20177;SDS011;10248;51.218;20.866;2022-10-17T06:58:18;3.70;;;3.60;;
20177;SDS011;10248;51.218;20.866;2022-10-17T07:00:46;3.58;;;3.47;;
20177;SDS011;10248;51.218;20.866;2022-10-17T07:03:13;3.58;;;3.47;;
20177;SDS011;10248;51.218;20.866;2022-10-17T07:05:41;3.47;;;3.38;;
20177;SDS011;10248;51.218;20.866;2022-10-17T07:08:10;3.47;;;3.38;;
20177;SDS011;10248;51.218;20.866;2022-10-17T07:10:38;3.60;;;3.50;;
20177;SDS011;10248;51.218;20.866;2022-10-17T07:13:06;3.75;;;3.65;;
20177;SDS011;10248;51.218;20.866;2022-10-17T07:15:33;4.18;;;4.07;;
20177;SDS011;10248;51.218;20.866;2022-10-17T07:18:01;3.83;;;3.72;;
20177;SDS011;10248;51.218;20.866;2022-10-17T07:20:29;4.20;;;4.10;;
20177;SDS011;10248;51.218;20.866;2022-10-17T07:22:57;4.13;;;4.03;;
20177;SDS011;10248;51.218;20.866;2022-10-17T07:25:26;4.28;;;4.15;;
20177;SDS011;10248;51.218;20.866;2022-10-17T07:27:54;4.60;;;4.40;;
20177;SDS011;10248;51.218;20.866;2022-10-17T07:30:22;4.20;;;4.10;;
20177;SDS011;10248;51.218;20.866;2022-10-17T07:32:51;4.00;;;3.90;;
20177;SDS011;10248;51.218;20.866;2022-10-17T07:35:19;3.90;;;3.80;;
20177;SDS011;10248;51.218;20.866;2022-10-17T07:37:47;4.35;;;4.18;;
20177;SDS011;10248;51.218;20.866;2022-10-17T07:40:14;3.70;;;3.60;;
20177;SDS011;10248;51.218;20.866;2022-10-17T07:42:47;3.80;;;3.70;;
20177;SDS011;10248;51.218;20.866;2022-10-17T07:45:15;3.47;;;3.38;;
20177;SDS011;10248;51.218;20.866;2022-10-17T07:47:42;3.30;;;3.20;;
20177;SDS011;10248;51.218;20.866;2022-10-17T07:50:10;3.65;;;3.55;;
20177;SDS011;10248;51.218;20.866;2022-10-17T07:52:38;3.30;;;3.20;;
20177;SDS011;10248;51.218;20.866;2022-10-17T07:55:08;3.45;;;3.35;;
20177;SDS011;10248;51.218;20.866;2022-10-17T07:57:36;3.58;;;3.47;;
20177;SDS011;10248;51.218;20.866;2022-10-17T08:00:08;3.60;;;3.50;;
20177;SDS011;10248;51.218;20.866;2022-10-17T08:02:36;3.60;;;3.50;;
20177;SDS011;10248;51.218;20.866;2022-10-17T08:05:05;3.80;;;3.70;;
20177;SDS011;10248;51.218;20.866;2022-10-17T08:07:32;3.80;;;3.70;;
20177;SDS011;10248;51.218;20.866;2022-10-17T08:10:00;4.03;;;3.92;;
20177;SDS011;10248;51.218;20.866;2022-10-17T08:12:30;3.70;;;3.60;;
20177;SDS011;10248;51.218;20.866;2022-10-17T08:14:59;3.90;;;3.80;;
20177;SDS011;10248;51.218;20.866;2022-10-17T08:17:29;3.90;;;3.80;;
20177;SDS011;10248;51.218;20.866;2022-10-17T08:19:56;3.30;;;3.20;;
20177;SDS011;10248;51.218;20.866;2022-10-17T08:22:24;3.80;;;3.70;;
20177;SDS011;10248;51.218;20.866;2022-10-17T08:24:52;3.80;;;3.70;;
20177;SDS011;10248;51.218;20.866;2022-10-17T08:27:20;3.65;;;3.55;;
20177;SDS011;10248;51.218;20.866;2022-10-17T08:29:50;4.00;;;3.90;;
20177;SDS011;10248;51.218;20.866;2022-10-17T08:32:19;3.90;;;3.80;;
20177;SDS011;10248;51.218;20.866;2022-10-17T08:34:48;3.90;;;3.80;;
20177;SDS011;10248;51.218;20.866;2022-10-17T08:37:16;3.90;;;3.80;;
20177;SDS011;10248;51.218;20.866;2022-10-17T08:39:43;4.00;;;3.90;;
20177;SDS011;10248;51.218;20.866;2022-10-17T08:42:18;3.80;;;3.70;;
20177;SDS011;10248;51.218;20.866;2022-10-17T08:44:52;3.83;;;3.72;;
20177;SDS011;10248;51.218;20.866;2022-10-17T08:47:25;3.90;;;3.80;;
20177;SDS011;10248;51.218;20.866;2022-10-17T08:49:56;3.90;;;3.80;;
20177;SDS011;10248;51.218;20.866;2022-10-17T08:52:29;4.00;;;3.90;;
20177;SDS011;10248;51.218;20.866;2022-10-17T08:54:58;3.70;;;3.60;;
20177;SDS011;10248;51.218;20.866;2022-10-17T08:57:26;3.70;;;3.60;;
20177;SDS011;10248;51.218;20.866;2022-10-17T09:02:37;3.63;;;3.53;;
20177;SDS011;10248;51.218;20.866;2022-10-17T09:08:15;3.60;;;3.50;;
20177;SDS011;10248;51.218;20.866;2022-10-17T09:10:51;3.80;;;3.70;;
20177;SDS011;10248;51.218;20.866;2022-10-17T09:13:23;4.10;;;4.00;;
20177;SDS011;10248;51.218;20.866;2022-10-17T09:15:56;3.90;;;3.80;;
20177;SDS011;10248;51.218;20.866;2022-10-17T09:18:26;3.90;;;3.80;;
20177;SDS011;10248;51.218;20.866;2022-10-17T09:20:58;3.85;;;3.75;;
20177;SDS011;10248;51.218;20.866;2022-10-17T09:23:29;3.80;;;3.70;;
20177;SDS011;10248;51.218;20.866;2022-10-17T09:25:58;4.10;;;4.00;;
20177;SDS011;10248;51.218;20.866;2022-10-17T09:28:27;4.35;;;4.18;;
20177;SDS011;10248;51.218;20.866;2022-10-17T09:30:57;4.18;;;4.07;;
20177;SDS011;10248;51.218;20.866;2022-10-17T09:33:27;4.10;;;4.00;;
20177;SDS011;10248;51.218;20.866;2022-10-17T09:36:09;4.20;;;4.10;;
20177;SDS011;10248;51.218;20.866;2022-10-17T09:38:40;4.10;;;4.00;;
20177;SDS011;10248;51.218;20.866;2022-10-17T09:41:16;3.90;;;3.80;;
20177;SDS011;10248;51.218;20.866;2022-10-17T09:44:14;4.10;;;4.00;;
20177;SDS011;10248;51.218;20.866;2022-10-17T09:46:42;4.10;;;4.00;;
20177;SDS011;10248;51.218;20.866;2022-10-17T09:49:16;4.28;;;4.10;;
20177;SDS011;10248;51.218;20.866;2022-10-17T09:51:45;4.10;;;4.00;;
20177;SDS011;10248;51.218;20.866;2022-10-17T09:54:17;4.40;;;4.20;;
20177;SDS011;10248;51.218;20.866;2022-10-17T09:56:55;4.45;;;4.25;;
20177;SDS011;10248;51.218;20.866;2022-10-17T09:59:31;4.30;;;4.15;;
20177;SDS011;10248;51.218;20.866;2022-10-17T10:02:06;4.28;;;4.18;;
20177;SDS011;10248;51.218;20.866;2022-10-17T10:04:34;4.05;;;3.95;;
20177;SDS011;10248;51.218;20.866;2022-10-17T10:07:21;4.20;;;4.07;;
20177;SDS011;10248;51.218;20.866;2022-10-17T10:09:56;4.22;;;4.13;;
20177;SDS011;10248;51.218;20.866;2022-10-17T10:12:26;3.92;;;3.83;;
20177;SDS011;10248;51.218;20.866;2022-10-17T10:14:54;4.00;;;3.90;;
20177;SDS011;10248;51.218;20.866;2022-10-17T10:17:33;4.10;;;4.00;;
20177;SDS011;10248;51.218;20.866;2022-10-17T10:22:54;4.00;;;3.90;;
20177;SDS011;10248;51.218;20.866;2022-10-17T10:25:32;3.80;;;3.70;;
20177;SDS011;10248;51.218;20.866;2022-10-17T10:27:59;3.80;;;3.70;;
20177;SDS011;10248;51.218;20.866;2022-10-17T10:30:28;3.90;;;3.80;;
20177;SDS011;10248;51.218;20.866;2022-10-17T10:33:03;3.50;;;3.40;;
20177;SDS011;10248;51.218;20.866;2022-10-17T10:35:38;3.90;;;3.80;;
20177;SDS011;10248;51.218;20.866;2022-10-17T10:38:07;3.90;;;3.80;;
20177;SDS011;10248;51.218;20.866;2022-10-17T10:40:43;3.80;;;3.70;;
20177;SDS011;10248;51.218;20.866;2022-10-17T10:43:19;3.90;;;3.80;;
20177;SDS011;10248;51.218;20.866;2022-10-17T10:45:47;3.83;;;3.72;;
20177;SDS011;10248;51.218;20.866;2022-10-17T10:48:18;4.00;;;3.90;;
20177;SDS011;10248;51.218;20.866;2022-10-17T10:50:47;3.90;;;3.80;;
20177;SDS011;10248;51.218;20.866;2022-10-17T10:53:21;3.90;;;3.80;;
20177;SDS011;10248;51.218;20.866;2022-10-17T10:55:53;3.83;;;3.72;;
20177;SDS011;10248;51.218;20.866;2022-10-17T10:58:25;3.70;;;3.60;;
20177;SDS011;10248;51.218;20.866;2022-10-17T11:00:53;3.80;;;3.70;;
20177;SDS011;10248;51.218;20.866;2022-10-17T11:03:22;3.90;;;3.80;;
20177;SDS011;10248;51.218;20.866;2022-10-17T11:05:55;3.80;;;3.70;;
20177;SDS011;10248;51.218;20.866;2022-10-17T11:08:25;3.80;;;3.70;;
20177;SDS011;10248;51.218;20.866;2022-10-17T11:11:02;3.90;;;3.80;;
20177;SDS011;10248;51.218;20.866;2022-10-17T11:13:32;3.80;;;3.70;;
20177;SDS011;10248;51.218;20.866;2022-10-17T11:16:11;3.80;;;3.70;;
20177;SDS011;10248;51.218;20.866;2022-10-17T11:18:41;3.97;;;3.88;;
20177;SDS011;10248;51.218;20.866;2022-10-17T11:21:12;4.00;;;3.90;;
20177;SDS011;10248;51.218;20.866;2022-10-17T11:23:42;3.88;;;3.78;;
20177;SDS011;10248;51.218;20.866;2022-10-17T11:28:41;4.25;;;4.15;;
20177;SDS011;10248;51.218;20.866;2022-10-17T11:31:11;3.90;;;3.80;;
20177;SDS011;10248;51.218;20.866;2022-10-17T11:33:43;3.70;;;3.60;;
20177;SDS011;10248;51.218;20.866;2022-10-17T11:36:13;3.78;;;3.67;;
20177;SDS011;10248;51.218;20.866;2022-10-17T11:38:44;3.90;;;3.80;;
20177;SDS011;10248;51.218;20.866;2022-10-17T11:41:14;3.70;;;3.60;;
20177;SDS011;10248;51.218;20.866;2022-10-17T11:43:47;3.90;;;3.80;;
20177;SDS011;10248;51.218;20.866;2022-10-17T11:46:16;3.90;;;3.80;;
20177;SDS011;10248;51.218;20.866;2022-10-17T11:48:49;3.70;;;3.60;;
20177;SDS011;10248;51.218;20.866;2022-10-17T11:51:20;3.90;;;3.80;;
20177;SDS011;10248;51.218;20.866;2022-10-17T11:54:09;4.00;;;3.90;;
20177;SDS011;10248;51.218;20.866;2022-10-17T11:56:38;3.97;;;3.88;;
20177;SDS011;10248;51.218;20.866;2022-10-17T12:02:03;3.88;;;3.78;;
20177;SDS011;10248;51.218;20.866;2022-10-17T12:04:44;3.80;;;3.70;;
20177;SDS011;10248;51.218;20.866;2022-10-17T12:07:16;3.58;;;3.47;;
20177;SDS011;10248;51.218;20.866;2022-10-17T12:09:48;3.80;;;3.70;;
20177;SDS011;10248;51.218;20.866;2022-10-17T12:12:26;3.60;;;3.50;;
20177;SDS011;10248;51.218;20.866;2022-10-17T12:14:56;3.65;;;3.55;;
20177;SDS011;10248;51.218;20.866;2022-10-17T12:17:45;3.80;;;3.70;;
20177;SDS011;10248;51.218;20.866;2022-10-17T12:20:24;3.70;;;3.60;;
20177;SDS011;10248;51.218;20.866;2022-10-17T12:22:53;3.80;;;3.70;;
20177;SDS011;10248;51.218;20.866;2022-10-17T12:25:22;3.80;;;3.70;;
20177;SDS011;10248;51.218;20.866;2022-10-17T12:28:00;3.80;;;3.70;;
20177;SDS011;10248;51.218;20.866;2022-10-17T12:30:29;3.80;;;3.70;;
20177;SDS011;10248;51.218;20.866;2022-10-17T12:35:35;3.72;;;3.63;;
20177;SDS011;10248;51.218;20.866;2022-10-17T12:40:51;3.50;;;3.40;;
20177;SDS011;10248;51.218;20.866;2022-10-17T12:46:09;3.60;;;3.50;;
20177;SDS011;10248;51.218;20.866;2022-10-17T12:48:57;3.80;;;3.70;;
20177;SDS011;10248;51.218;20.866;2022-10-17T12:51:27;3.50;;;3.40;;
20177;SDS011;10248;51.218;20.866;2022-10-17T12:54:07;4.13;;;4.03;;
20177;SDS011;10248;51.218;20.866;2022-10-17T12:56:38;3.95;;;3.85;;
20177;SDS011;10248;51.218;20.866;2022-10-17T12:59:07;3.90;;;3.80;;
20177;SDS011;10248;51.218;20.866;2022-10-17T13:04:46;3.90;;;3.80;;
20177;SDS011;10248;51.218;20.866;2022-10-17T13:07:17;4.10;;;4.00;;
20177;SDS011;10248;51.218;20.866;2022-10-17T13:09:46;4.10;;;4.00;;
20177;SDS011;10248;51.218;20.866;2022-10-17T13:12:16;3.90;;;3.80;;
20177;SDS011;10248;51.218;20.866;2022-10-17T13:17:19;4.07;;;3.97;;
20177;SDS011;10248;51.218;20.866;2022-10-17T13:19:47;3.85;;;3.75;;
20177;SDS011;10248;51.218;20.866;2022-10-17T13:22:17;3.80;;;3.70;;
20177;SDS011;10248;51.218;20.866;2022-10-17T13:24:45;3.90;;;3.80;;
20177;SDS011;10248;51.218;20.866;2022-10-17T13:27:21;3.70;;;3.60;;
20177;SDS011;10248;51.218;20.866;2022-10-17T13:29:49;3.90;;;3.80;;
20177;SDS011;10248;51.218;20.866;2022-10-17T13:32:16;3.83;;;3.72;;
20177;SDS011;10248;51.218;20.866;2022-10-17T13:34:44;3.90;;;3.80;;
20177;SDS011;10248;51.218;20.866;2022-10-17T13:37:13;3.80;;;3.70;;
20177;SDS011;10248;51.218;20.866;2022-10-17T13:39:44;3.80;;;3.70;;
20177;SDS011;10248;51.218;20.866;2022-10-17T13:42:35;4.00;;;3.90;;
20177;SDS011;10248;51.218;20.866;2022-10-17T13:45:09;4.00;;;3.90;;
20177;SDS011;10248;51.218;20.866;2022-10-17T13:47:40;3.80;;;3.70;;
20177;SDS011;10248;51.218;20.866;2022-10-17T13:50:12;3.50;;;3.40;;
20177;SDS011;10248;51.218;20.866;2022-10-17T13:53:07;3.60;;;3.50;;
20177;SDS011;10248;51.218;20.866;2022-10-17T13:55:38;3.50;;;3.40;;
20177;SDS011;10248;51.218;20.866;2022-10-17T13:58:09;3.50;;;3.40;;
20177;SDS011;10248;51.218;20.866;2022-10-17T14:00:51;3.70;;;3.60;;
20177;SDS011;10248;51.218;20.866;2022-10-17T14:03:19;3.80;;;3.70;;
20177;SDS011;10248;51.218;20.866;2022-10-17T14:05:57;3.83;;;3.72;;
20177;SDS011;10248;51.218;20.866;2022-10-17T14:08:26;3.90;;;3.80;;
20177;SDS011;10248;51.218;20.866;2022-10-17T14:10:56;3.88;;;3.78;;
20177;SDS011;10248;51.218;20.866;2022-10-17T14:13:25;3.65;;;3.55;;
20177;SDS011;10248;51.218;20.866;2022-10-17T14:19:18;3.88;;;3.78;;
20177;SDS011;10248;51.218;20.866;2022-10-17T14:21:51;3.40;;;3.30;;
20177;SDS011;10248;51.218;20.866;2022-10-17T14:24:26;3.60;;;3.50;;
20177;SDS011;10248;51.218;20.866;2022-10-17T14:26:57;3.60;;;3.50;;
20177;SDS011;10248;51.218;20.866;2022-10-17T14:29:26;3.60;;;3.50;;
20177;SDS011;10248;51.218;20.866;2022-10-17T14:31:57;3.55;;;3.45;;
20177;SDS011;10248;51.218;20.866;2022-10-17T14:34:27;3.50;;;3.40;;
20177;SDS011;10248;51.218;20.866;2022-10-17T14:36:56;3.55;;;3.45;;
20177;SDS011;10248;51.218;20.866;2022-10-17T14:39:24;3.60;;;3.50;;
20177;SDS011;10248;51.218;20.866;2022-10-17T14:41:52;3.50;;;3.40;;
20177;SDS011;10248;51.218;20.866;2022-10-17T14:44:25;3.50;;;3.40;;
20177;SDS011;10248;51.218;20.866;2022-10-17T14:46:54;3.40;;;3.30;;
20177;SDS011;10248;51.218;20.866;2022-10-17T14:49:25;3.40;;;3.30;;
20177;SDS011;10248;51.218;20.866;2022-10-17T14:52:19;3.40;;;3.30;;
20177;SDS011;10248;51.218;20.866;2022-10-17T14:54:49;3.50;;;3.40;;
20177;SDS011;10248;51.218;20.866;2022-10-17T14:57:18;3.60;;;3.50;;
20177;SDS011;10248;51.218;20.866;2022-10-17T14:59:51;3.40;;;3.30;;
20177;SDS011;10248;51.218;20.866;2022-10-17T15:02:21;3.60;;;3.50;;
20177;SDS011;10248;51.218;20.866;2022-10-17T15:04:48;3.47;;;3.38;;
20177;SDS011;10248;51.218;20.866;2022-10-17T15:07:16;3.22;;;3.13;;
20177;SDS011;10248;51.218;20.866;2022-10-17T15:09:45;3.40;;;3.30;;
20177;SDS011;10248;51.218;20.866;2022-10-17T15:12:17;3.50;;;3.40;;
20177;SDS011;10248;51.218;20.866;2022-10-17T15:14:48;3.50;;;3.40;;
20177;SDS011;10248;51.218;20.866;2022-10-17T15:17:18;3.40;;;3.30;;
20177;SDS011;10248;51.218;20.866;2022-10-17T15:19:47;3.40;;;3.30;;
20177;SDS011;10248;51.218;20.866;2022-10-17T15:22:15;3.50;;;3.40;;
20177;SDS011;10248;51.218;20.866;2022-10-17T15:24:48;3.30;;;3.20;;
20177;SDS011;10248;51.218;20.866;2022-10-17T15:27:19;3.50;;;3.40;;
20177;SDS011;10248;51.218;20.866;2022-10-17T15:29:48;3.60;;;3.50;;